createdAt,value
2018-01-21T00:01:00.000Z,97107
2018-01-21T00:06:00.000Z,97106
2018-01-21T00:11:00.000Z,97097
2018-01-21T00:16:00.000Z,97102
2018-01-21T00:21:00.000Z,97091
2018-01-21T00:26:00.000Z,97093
2018-01-21T00:31:00.000Z,97083
2018-01-21T00:36:00.000Z,97087
2018-01-21T00:41:00.000Z,97099
2018-01-21T00:46:00.000Z,97093
2018-01-21T00:51:00.000Z,97097
2018-01-21T00:56:00.000Z,97088
2018-01-21T01:01:00.000Z,97084
2018-01-21T01:06:00.000Z,97092
2018-01-21T01:11:00.000Z,97105
2018-01-21T01:16:00.000Z,97100
2018-01-21T01:21:00.000Z,97105
2018-01-21T01:26:00.000Z,97094
2018-01-21T01:31:00.000Z,97102
2018-01-21T01:36:00.000Z,97101
2018-01-21T01:41:00.000Z,97108
2018-01-21T01:46:00.000Z,97098
2018-01-21T01:51:00.000Z,97102
2018-01-21T01:56:00.000Z,97102
2018-01-21T02:01:00.000Z,97096
2018-01-21T02:06:00.000Z,97097
2018-01-21T02:11:00.000Z,97094
2018-01-21T02:17:00.000Z,97081
2018-01-21T02:22:00.000Z,97088
2018-01-21T02:27:00.000Z,97085
2018-01-21T02:32:00.000Z,97086
2018-01-21T02:37:00.000Z,97099
2018-01-21T02:42:00.000Z,97100
2018-01-21T02:47:00.000Z,97100
2018-01-21T02:52:00.000Z,97127
2018-01-21T02:57:00.000Z,97138
2018-01-21T03:02:00.000Z,97140
2018-01-21T03:07:00.000Z,97133
2018-01-21T03:12:00.000Z,97131
2018-01-21T03:17:00.000Z,97124
2018-01-21T03:22:00.000Z,97140
2018-01-21T03:27:00.000Z,97139
2018-01-21T03:32:00.000Z,97151
2018-01-21T03:37:00.000Z,97130
2018-01-21T03:42:00.000Z,97141
2018-01-21T03:47:00.000Z,97138
2018-01-21T03:52:00.000Z,97150
2018-01-21T03:57:00.000Z,97152
2018-01-21T04:02:00.000Z,97160
2018-01-21T04:07:00.000Z,97153
2018-01-21T04:12:00.000Z,97173
2018-01-21T04:17:00.000Z,97179
2018-01-21T04:22:00.000Z,97174
2018-01-21T04:27:00.000Z,97185
2018-01-21T04:32:00.000Z,97188
2018-01-21T04:37:00.000Z,97208
2018-01-21T04:42:00.000Z,97201
2018-01-21T04:47:00.000Z,97202
2018-01-21T04:52:00.000Z,97214
2018-01-21T04:57:00.000Z,97222
2018-01-21T05:02:00.000Z,97235
2018-01-21T05:07:00.000Z,97249
2018-01-21T05:12:00.000Z,97260
2018-01-21T05:17:00.000Z,97264
2018-01-21T05:22:00.000Z,97270
2018-01-21T05:27:00.000Z,97285
2018-01-21T05:32:00.000Z,97303
2018-01-21T05:37:00.000Z,97302
2018-01-21T05:42:00.000Z,97318
2018-01-21T05:47:00.000Z,97336
2018-01-21T05:52:00.000Z,97338
2018-01-21T05:57:00.000Z,97341
2018-01-21T06:02:00.000Z,97347
2018-01-21T06:07:00.000Z,97366
2018-01-21T06:12:00.000Z,97379
2018-01-21T06:17:00.000Z,97385
2018-01-21T06:22:00.000Z,97392
2018-01-21T06:27:00.000Z,97402
2018-01-21T06:32:00.000Z,97416
2018-01-21T06:37:00.000Z,97431
2018-01-21T06:42:00.000Z,97428
2018-01-21T06:47:00.000Z,97445
2018-01-21T06:52:00.000Z,97459
2018-01-21T06:57:00.000Z,97451
2018-01-21T07:02:00.000Z,97457
2018-01-21T07:07:00.000Z,97476
2018-01-21T07:12:00.000Z,97486
2018-01-21T07:17:00.000Z,97495
2018-01-21T07:22:00.000Z,97507
2018-01-21T07:27:00.000Z,97518
2018-01-21T07:32:00.000Z,97514
2018-01-21T07:37:00.000Z,97528
2018-01-21T07:42:00.000Z,97539
2018-01-21T07:47:00.000Z,97545
2018-01-21T07:52:00.000Z,97555
2018-01-21T07:57:00.000Z,97557
2018-01-21T08:02:00.000Z,97567
2018-01-21T08:07:00.000Z,97577
2018-01-21T08:12:00.000Z,97578
2018-01-21T08:17:00.000Z,97594
2018-01-21T08:22:00.000Z,97593
2018-01-21T08:28:00.000Z,97596
2018-01-21T08:33:00.000Z,97598
2018-01-21T08:38:00.000Z,97601
2018-01-21T08:43:00.000Z,97611
2018-01-21T08:48:00.000Z,97614
2018-01-21T08:53:00.000Z,97629
2018-01-21T08:58:00.000Z,97635
2018-01-21T09:03:00.000Z,97649
2018-01-21T09:08:00.000Z,97666
2018-01-21T09:13:00.000Z,97676
2018-01-21T09:18:00.000Z,97675
2018-01-21T09:23:00.000Z,97683
2018-01-21T09:28:00.000Z,97686
2018-01-21T09:33:00.000Z,97707
2018-01-21T09:38:00.000Z,97708
2018-01-21T09:43:00.000Z,97728
2018-01-21T09:48:00.000Z,97733
2018-01-21T09:53:00.000Z,97739
2018-01-21T09:58:00.000Z,97735
2018-01-21T10:03:00.000Z,97733
2018-01-21T10:08:00.000Z,97769
2018-01-21T10:13:00.000Z,97769
2018-01-21T10:18:00.000Z,97774
2018-01-21T10:23:00.000Z,97785
2018-01-21T10:28:00.000Z,97781
2018-01-21T10:33:00.000Z,97793
2018-01-21T10:38:00.000Z,97798
2018-01-21T10:43:00.000Z,97818
2018-01-21T10:48:00.000Z,97807
2018-01-21T10:53:00.000Z,97819
2018-01-21T10:58:00.000Z,97827
2018-01-21T11:03:00.000Z,97837
2018-01-21T11:08:00.000Z,97832
2018-01-21T11:13:00.000Z,97848
2018-01-21T11:18:00.000Z,97854
2018-01-21T11:23:00.000Z,97865
2018-01-21T11:28:00.000Z,97858
2018-01-21T11:33:00.000Z,97863
2018-01-21T11:38:00.000Z,97874
2018-01-21T11:43:00.000Z,97886
2018-01-21T11:48:00.000Z,97879
2018-01-21T11:53:00.000Z,97899
2018-01-21T11:58:00.000Z,97910
2018-01-21T12:03:00.000Z,97914
2018-01-21T12:08:00.000Z,97911
2018-01-21T12:13:00.000Z,97935
2018-01-21T12:18:00.000Z,97937
2018-01-21T12:23:00.000Z,97936
2018-01-21T12:28:00.000Z,97953
2018-01-21T12:33:00.000Z,97950
2018-01-21T12:38:00.000Z,97957
2018-01-21T12:43:00.000Z,97953
2018-01-21T12:48:00.000Z,97977
2018-01-21T12:53:00.000Z,97993
2018-01-21T12:58:00.000Z,97985
2018-01-21T13:03:00.000Z,98007
2018-01-21T13:08:00.000Z,98007
2018-01-21T13:13:00.000Z,98026
2018-01-21T13:18:00.000Z,98036
2018-01-21T13:23:00.000Z,98054
2018-01-21T13:28:00.000Z,98071
2018-01-21T13:33:00.000Z,98087
2018-01-21T13:38:00.000Z,98096
2018-01-21T13:43:00.000Z,98102
2018-01-21T13:48:00.000Z,98118
2018-01-21T13:53:00.000Z,98129
2018-01-21T13:58:00.000Z,98139
2018-01-21T14:03:00.000Z,98168
2018-01-21T14:08:00.000Z,98155
2018-01-21T14:13:00.000Z,98173
2018-01-21T14:18:00.000Z,98183
2018-01-21T14:23:00.000Z,98189
2018-01-21T14:28:00.000Z,98190
2018-01-21T14:33:00.000Z,98214
2018-01-21T14:39:00.000Z,98227
2018-01-21T14:44:00.000Z,98224
2018-01-21T14:49:00.000Z,98246
2018-01-21T14:54:00.000Z,98241
2018-01-21T14:59:00.000Z,98261
2018-01-21T15:04:00.000Z,98264
2018-01-21T15:09:00.000Z,98274
2018-01-21T15:14:00.000Z,98282
2018-01-21T15:19:00.000Z,98291
2018-01-21T15:24:00.000Z,98308
2018-01-21T15:29:00.000Z,98308
2018-01-21T15:34:00.000Z,98314
2018-01-21T15:39:00.000Z,98319
2018-01-21T15:44:00.000Z,98325
2018-01-21T15:49:00.000Z,98338
2018-01-21T15:54:00.000Z,98349
2018-01-21T15:59:00.000Z,98363
2018-01-21T16:04:00.000Z,98377
2018-01-21T16:09:00.000Z,98384
2018-01-21T16:14:00.000Z,98407
2018-01-21T16:19:00.000Z,98418
2018-01-21T16:24:00.000Z,98428
2018-01-21T16:29:00.000Z,98437
2018-01-21T16:34:00.000Z,98444
2018-01-21T16:39:00.000Z,98446
2018-01-21T16:44:00.000Z,98458
2018-01-21T16:49:00.000Z,98472
2018-01-21T16:54:00.000Z,98478
2018-01-21T16:59:00.000Z,98492
2018-01-21T17:04:00.000Z,98500
2018-01-21T17:09:00.000Z,98522
2018-01-21T17:14:00.000Z,98526
2018-01-21T17:19:00.000Z,98535
2018-01-21T17:24:00.000Z,98559
2018-01-21T17:29:00.000Z,98569
2018-01-21T17:34:00.000Z,98575
2018-01-21T17:39:00.000Z,98576
2018-01-21T17:44:00.000Z,98600
2018-01-21T17:49:00.000Z,98596
2018-01-21T17:54:00.000Z,98614
2018-01-21T17:59:00.000Z,98641
2018-01-21T18:04:00.000Z,98658
2018-01-21T18:09:00.000Z,98660
2018-01-21T18:14:00.000Z,98679
2018-01-21T18:19:00.000Z,98684
2018-01-21T18:24:00.000Z,98695
2018-01-21T18:29:00.000Z,98697
2018-01-21T18:34:00.000Z,98710
2018-01-21T18:39:00.000Z,98706
2018-01-21T18:44:00.000Z,98722
2018-01-21T18:49:00.000Z,98723
2018-01-21T18:54:00.000Z,98719
2018-01-21T18:59:00.000Z,98733
2018-01-21T19:04:00.000Z,98745
2018-01-21T19:09:00.000Z,98746
2018-01-21T19:14:00.000Z,98743
2018-01-21T19:19:00.000Z,98739
2018-01-21T19:24:00.000Z,98748
2018-01-21T19:29:00.000Z,98736
2018-01-21T19:34:00.000Z,98744
2018-01-21T19:39:00.000Z,98747
2018-01-21T19:44:00.000Z,98740
2018-01-21T19:49:00.000Z,98740
2018-01-21T19:54:00.000Z,98743
2018-01-21T19:59:00.000Z,98735
2018-01-21T20:04:00.000Z,98735
2018-01-21T20:09:00.000Z,98737
2018-01-21T20:14:00.000Z,98740
2018-01-21T20:19:00.000Z,98747
2018-01-21T20:24:00.000Z,98750
2018-01-21T20:29:00.000Z,98759
2018-01-21T20:34:00.000Z,98772
2018-01-21T20:39:00.000Z,98773
2018-01-21T20:44:00.000Z,98790
2018-01-21T20:50:00.000Z,98796
2018-01-21T20:55:00.000Z,98799
2018-01-21T21:00:00.000Z,98796
2018-01-21T21:05:00.000Z,98805
2018-01-21T21:10:00.000Z,98807
2018-01-21T21:15:00.000Z,98824
2018-01-21T21:20:00.000Z,98818
2018-01-21T21:25:00.000Z,98820
2018-01-21T21:30:00.000Z,98821
2018-01-21T21:35:00.000Z,98829
2018-01-21T21:40:00.000Z,98829
2018-01-21T21:45:00.000Z,98828
2018-01-21T21:50:00.000Z,98822
2018-01-21T21:55:00.000Z,98825
2018-01-21T22:00:00.000Z,98819
2018-01-21T22:05:00.000Z,98815
2018-01-21T22:10:00.000Z,98821
2018-01-21T22:15:00.000Z,98827
2018-01-21T22:20:00.000Z,98832
2018-01-21T22:25:00.000Z,98828
2018-01-21T22:30:00.000Z,98823
2018-01-21T22:35:00.000Z,98829
2018-01-21T22:40:00.000Z,98828
2018-01-21T22:45:00.000Z,98839
2018-01-21T22:50:00.000Z,98839
2018-01-21T22:55:00.000Z,98839
2018-01-21T23:00:00.000Z,98841
2018-01-21T23:05:00.000Z,98829
2018-01-21T23:10:00.000Z,98831
2018-01-21T23:15:00.000Z,98837
2018-01-21T23:20:00.000Z,98829
2018-01-21T23:25:00.000Z,98826
2018-01-21T23:30:00.000Z,98823
2018-01-21T23:35:00.000Z,98828
2018-01-21T23:40:00.000Z,98827
2018-01-21T23:45:00.000Z,98832
2018-01-21T23:50:00.000Z,98846
2018-01-21T23:55:00.000Z,98838
